Time;durP1;ratioP1;P1;durP2;ratioP2;P2;SDS_P1;SDS_P2;PMS_P1;PMS_P2;Temp;Humidity;BMP_temperature;BMP_pressure;BME280_temperature;BME280_humidity;BME280_pressure;Samples;Min_cycle;Max_cycle;Signal;HPM_P1;HPM_P2
2022/07/31 00:02:01;;;;;;;5.63;2.47;;;;;;;19.04;100.00;100201.23;1644470;87;21157;-59
2022/07/31 00:04:29;;;;;;;5.27;2.40;;;;;;;18.95;100.00;100202.69;1641918;86;21129;-58
2022/07/31 00:06:57;;;;;;;6.50;2.43;;;;;;;18.86;100.00;100206.75;1640241;87;21078;-58
2022/07/31 00:09:24;;;;;;;5.87;2.60;;;;;;;18.80;100.00;100205.08;1639896;87;21493;-59
2022/07/31 00:11:51;;;;;;;7.80;2.60;;;;;;;18.70;100.00;100212.26;1639623;87;22077;-66
2022/07/31 00:14:19;;;;;;;7.83;2.93;;;;;;;18.67;100.00;100208.24;1639725;87;22324;-60
2022/07/31 00:16:47;;;;;;;6.53;2.03;;;;;;;18.68;100.00;100213.03;1639597;87;20998;-60
2022/07/31 00:19:16;;;;;;;4.23;2.17;;;;;;;18.67;100.00;100211.41;1640252;86;21074;-68
2022/07/31 00:21:43;;;;;;;5.17;1.90;;;;;;;18.64;100.00;100213.22;1639142;87;21153;-59
2022/07/31 00:24:11;;;;;;;6.67;2.00;;;;;;;18.58;100.00;100209.67;1638944;87;21066;-60
2022/07/31 00:26:39;;;;;;;3.97;2.10;;;;;;;18.59;100.00;100211.80;1639627;87;21142;-57
2022/07/31 00:29:06;;;;;;;3.73;1.70;;;;;;;18.63;100.00;100212.92;1639687;87;21055;-58
2022/07/31 00:31:34;;;;;;;4.13;1.57;;;;;;;18.62;100.00;100213.45;1639249;87;20983;-58
2022/07/31 00:34:01;;;;;;;3.40;1.53;;;;;;;18.64;100.00;100219.30;1639640;87;21009;-63
2022/07/31 00:36:28;;;;;;;3.67;1.50;;;;;;;18.65;100.00;100218.25;1640015;87;21622;-58
2022/07/31 00:38:55;;;;;;;6.03;1.73;;;;;;;18.62;100.00;100216.08;1640101;87;21783;-57
2022/07/31 00:41:23;;;;;;;2.33;0.97;;;;;;;18.58;100.00;100216.28;1639412;87;21024;-65
2022/07/31 00:43:50;;;;;;;3.57;1.30;;;;;;;18.54;100.00;100219.11;1639312;87;21082;-58
2022/07/31 00:46:17;;;;;;;4.70;1.30;;;;;;;18.54;100.00;100212.52;1640051;87;21859;-56
2022/07/31 00:48:44;;;;;;;2.77;1.30;;;;;;;18.57;100.00;100216.53;1640056;87;21068;-56
2022/07/31 00:51:12;;;;;;;2.83;1.50;;;;;;;18.58;100.00;100217.59;1640248;87;21264;-56
2022/07/31 00:53:41;;;;;;;3.33;1.33;;;;;;;18.57;100.00;100216.00;1639326;87;21066;-57
2022/07/31 00:56:09;;;;;;;3.40;1.30;;;;;;;18.57;100.00;100214.69;1639653;87;21492;-57
2022/07/31 00:58:37;;;;;;;2.90;1.10;;;;;;;18.59;100.00;100213.91;1639966;87;20958;-57
2022/07/31 01:01:05;;;;;;;2.03;1.03;;;;;;;18.64;100.00;100215.34;1640108;87;20995;-57
2022/07/31 01:03:32;;;;;;;1.73;0.90;;;;;;;18.62;100.00;100216.08;1639366;86;21663;-57
2022/07/31 01:06:00;;;;;;;2.53;1.10;;;;;;;18.59;100.00;100208.63;1639508;87;21014;-57
2022/07/31 01:08:27;;;;;;;2.70;1.30;;;;;;;18.54;100.00;100209.87;1640033;87;21085;-57
2022/07/31 01:11:15;;;;;;;3.10;1.00;;;;;;;18.54;100.00;100213.83;1640072;87;21114;-56
2022/07/31 01:13:59;;;;;;;3.80;1.10;;;;;;;18.48;100.00;100206.84;1639430;87;20908;-59
2022/07/31 01:16:34;;;;;;;3.40;1.23;;;;;;;18.44;100.00;100218.91;1639819;87;21853;-61
2022/07/31 01:19:27;;;;;;;3.83;1.10;;;;;;;18.41;100.00;100212.28;1639637;87;21165;-57
2022/07/31 01:22:28;;;;;;;2.90;1.17;;;;;;;18.39;100.00;100212.23;1639908;87;21603;-65
2022/07/31 01:25:10;;;;;;;;;;;;;;;18.37;100.00;100215.61;1641957;87;21081;-57
2022/07/31 01:28:22;;;;;;;3.85;1.40;;;;;;;18.30;100.00;100211.02;1639638;87;20939;-58
2022/07/31 01:31:10;;;;;;;3.13;1.60;;;;;;;18.21;100.00;100217.95;1611509;87;21336;-64
2022/07/31 01:33:43;;;;;;;4.03;1.23;;;;;;;18.14;100.00;100208.05;1639650;86;21015;-59
2022/07/31 01:36:14;;;;;;;3.87;1.37;;;;;;;18.14;100.00;100205.41;1639619;86;20927;-58
2022/07/31 01:38:44;;;;;;;3.37;1.50;;;;;;;18.11;100.00;100204.58;1639155;87;21052;-58
2022/07/31 01:41:12;;;;;;;2.83;1.37;;;;;;;18.08;100.00;100210.32;1640118;87;21142;-57
2022/07/31 01:43:41;;;;;;;6.23;1.40;;;;;;;18.07;100.00;100204.77;1640200;87;21270;-58
2022/07/31 01:46:12;;;;;;;2.67;1.23;;;;;;;18.05;100.00;100202.87;1639792;87;21461;-66
2022/07/31 01:48:39;;;;;;;4.10;1.73;;;;;;;18.04;100.00;100205.75;1634031;86;21105;-60
2022/07/31 01:51:07;;;;;;;2.90;1.17;;;;;;;17.98;100.00;100195.59;1640135;87;21074;-57
2022/07/31 01:53:35;;;;;;;2.60;1.20;;;;;;;17.97;100.00;100205.88;1640038;87;21047;-57
2022/07/31 01:56:03;;;;;;;2.97;1.20;;;;;;;17.98;100.00;100202.19;1639986;85;22377;-66
2022/07/31 01:58:37;;;;;;;2.87;1.23;;;;;;;17.94;100.00;100204.49;1611660;87;22441;-58
2022/07/31 02:01:07;;;;;;;2.70;1.20;;;;;;;17.92;100.00;100201.83;1639318;87;21058;-57
2022/07/31 02:03:34;;;;;;;3.93;1.40;;;;;;;17.94;100.00;100203.17;1639700;87;21086;-59
2022/07/31 02:06:02;;;;;;;3.97;1.77;;;;;;;17.96;100.00;100202.95;1612583;87;20975;-57
2022/07/31 02:08:30;;;;;;;5.37;1.50;;;;;;;17.98;100.00;100202.98;1639344;87;21254;-58
2022/07/31 02:10:57;;;;;;;6.67;1.40;;;;;;;18.07;100.00;100203.45;1639593;87;21046;-57
2022/07/31 02:13:25;;;;;;;2.60;1.27;;;;;;;18.11;100.00;100204.58;1639792;87;21497;-57
2022/07/31 02:15:52;;;;;;;4.13;1.40;;;;;;;18.17;100.00;100201.52;1639179;87;20995;-60
2022/07/31 02:18:21;;;;;;;5.20;1.50;;;;;;;18.24;100.00;100202.98;1638981;87;21102;-66
2022/07/31 02:21:07;;;;;;;3.87;1.63;;;;;;;18.27;100.00;100212.80;1639883;87;22304;-57
2022/07/31 02:23:34;;;;;;;3.90;1.37;;;;;;;18.27;100.00;100208.31;1639230;87;20986;-58
2022/07/31 02:26:01;;;;;;;5.67;1.40;;;;;;;18.27;100.00;100215.44;1640180;87;21046;-57
2022/07/31 02:28:28;;;;;;;3.60;1.57;;;;;;;18.26;100.00;100212.48;1639357;87;21434;-58
2022/07/31 02:30:56;;;;;;;4.73;1.37;;;;;;;18.25;100.00;100220.92;1639810;87;21573;-58
2022/07/31 02:33:25;;;;;;;3.57;1.70;;;;;;;18.30;100.00;100215.77;1639496;87;21278;-57
2022/07/31 02:35:56;;;;;;;4.70;1.50;;;;;;;18.50;100.00;100200.83;1639941;87;21090;-56
2022/07/31 02:38:25;;;;;;;2.67;1.50;;;;;;;18.61;100.00;100204.45;1611906;87;21073;-59
2022/07/31 02:40:56;;;;;;;3.43;1.57;;;;;;;18.64;100.00;100208.74;1639638;87;21546;-57
2022/07/31 02:43:25;;;;;;;5.72;1.92;;;;;;;18.68;100.00;100209.07;1639426;87;21142;-57
2022/07/31 02:45:54;;;;;;;5.27;1.67;;;;;;;18.64;100.00;100206.10;1640010;87;21266;-58
2022/07/31 02:48:21;;;;;;;2.93;1.70;;;;;;;18.63;100.00;100204.48;1639667;87;21026;-67
2022/07/31 02:50:50;;;;;;;3.97;1.60;;;;;;;18.62;100.00;100207.37;1639911;86;21098;-58
2022/07/31 02:53:17;;;;;;;6.40;1.80;;;;;;;18.62;100.00;100206.05;1639698;87;21000;-58
2022/07/31 02:55:46;;;;;;;2.77;1.43;;;;;;;18.64;100.00;100205.30;1640183;87;21797;-58
2022/07/31 02:58:13;;;;;;;4.07;1.50;;;;;;;18.68;100.00;100207.23;1639526;87;21171;-60
2022/07/31 03:00:40;;;;;;;4.43;1.50;;;;;;;18.78;100.00;100207.94;1639861;87;21492;-58
2022/07/31 03:03:08;;;;;;;3.20;1.40;;;;;;;18.89;100.00;100207.59;1639241;87;21031;-58
2022/07/31 03:05:35;;;;;;;4.33;1.23;;;;;;;19.01;100.00;100204.36;1639388;86;21921;-58
2022/07/31 03:08:03;;;;;;;6.27;1.60;;;;;;;19.19;100.00;100212.05;1639139;87;21525;-59
2022/07/31 03:10:32;;;;;;;5.77;1.40;;;;;;;19.38;100.00;100211.27;1640089;87;21112;-59
2022/07/31 03:13:05;;;;;;;3.55;1.37;;;;;;;19.89;100.00;100206.73;1639284;87;21078;-59
2022/07/31 03:15:32;;;;;;;3.00;1.30;;;;;;;20.78;100.00;100191.53;1658636;86;21073;-57
2022/07/31 03:18:00;;;;;;;3.70;1.60;;;;;;;21.86;100.00;100195.19;1639322;87;21455;-64
2022/07/31 03:20:32;;;;;;;2.87;1.37;;;;;;;22.98;100.00;100188.80;1666894;85;21444;-57
2022/07/31 03:22:59;;;;;;;2.87;1.27;;;;;;;23.98;100.00;100189.90;1639042;87;21119;-58
2022/07/31 03:25:26;;;;;;;4.17;1.27;;;;;;;24.72;86.55;100181.48;1667798;85;21847;-58
2022/07/31 03:27:54;;;;;;;2.80;1.40;;;;;;;25.36;75.79;100184.40;1668183;85;20950;-57
2022/07/31 03:30:23;;;;;;;4.67;1.80;;;;;;;25.95;66.50;100176.53;1667217;85;21528;-58
2022/07/31 03:32:51;;;;;;;5.40;1.67;;;;;;;26.44;60.61;100173.16;1667490;85;20991;-59
2022/07/31 03:35:18;;;;;;;4.08;1.82;;;;;;;26.79;57.24;100173.73;1639955;87;21596;-57
2022/07/31 03:37:46;;;;;;;3.72;1.80;;;;;;;27.18;55.42;100172.00;1668019;85;21018;-61
2022/07/31 03:40:13;;;;;;;5.12;1.52;;;;;;;27.58;53.13;100166.42;1668107;85;21167;-60
2022/07/31 03:42:41;;;;;;;4.87;2.02;;;;;;;27.99;51.46;100162.10;1643286;85;21556;-67
2022/07/31 03:45:10;;;;;;;3.80;1.82;;;;;;;28.30;49.59;100168.38;1667592;85;21019;-58
2022/07/31 03:47:38;;;;;;;5.03;1.95;;;;;;;28.59;48.12;100161.27;1668475;85;21647;-62
2022/07/31 03:50:06;;;;;;;4.28;2.40;;;;;;;28.92;46.77;100164.23;1667890;85;21069;-59
2022/07/31 03:52:33;;;;;;;4.55;2.00;;;;;;;29.18;45.35;100162.49;1668345;85;20979;-58
2022/07/31 03:55:00;;;;;;;4.78;2.05;;;;;;;29.33;44.38;100161.28;1668073;85;21063;-63
2022/07/31 03:57:28;;;;;;;3.60;1.90;;;;;;;29.36;44.51;100157.17;1667651;85;21058;-59
2022/07/31 03:59:57;;;;;;;4.55;2.12;;;;;;;29.55;43.92;100155.83;1667064;85;21224;-59
2022/07/31 04:02:26;;;;;;;3.52;2.10;;;;;;;29.77;43.60;100156.83;1668290;85;21078;-58
2022/07/31 04:04:56;;;;;;;4.58;2.12;;;;;;;30.05;42.76;100159.48;1666764;85;21172;-58
2022/07/31 04:07:24;;;;;;;3.60;1.82;;;;;;;30.27;43.05;100153.75;1642989;85;20911;-60
2022/07/31 04:09:51;;;;;;;2.33;1.67;;;;;;;30.71;41.80;100159.83;1667432;85;21100;-57
2022/07/31 04:12:19;;;;;;;4.67;1.62;;;;;;;30.94;40.84;100156.39;1668482;85;21321;-58
2022/07/31 04:14:47;;;;;;;4.40;2.15;;;;;;;31.12;40.66;100159.27;1668945;85;21083;-60
2022/07/31 04:17:14;;;;;;;5.22;1.90;;;;;;;31.34;39.94;100152.08;1668380;85;21078;-67
2022/07/31 04:19:41;;;;;;;4.15;1.77;;;;;;;31.53;39.62;100148.40;1668321;85;21152;-59
2022/07/31 04:22:08;;;;;;;5.55;1.80;;;;;;;31.57;38.99;100145.28;1668648;85;21043;-58
2022/07/31 04:24:38;;;;;;;6.85;2.20;;;;;;;31.64;38.41;100151.51;1668648;85;21066;-59
2022/07/31 04:27:07;;;;;;;2.87;1.45;;;;;;;31.68;37.79;100153.22;1666668;85;21019;-67
2022/07/31 04:29:36;;;;;;;3.55;1.17;;;;;;;31.82;37.90;100153.50;1643628;85;21460;-58
2022/07/31 04:32:04;;;;;;;6.25;1.55;;;;;;;32.00;37.39;100152.30;1668343;85;21618;-59
2022/07/31 04:34:33;;;;;;;3.42;1.67;;;;;;;32.04;36.84;100155.91;1668300;85;21134;-58
2022/07/31 04:37:00;;;;;;;3.45;1.70;;;;;;;32.14;36.99;100148.77;1667683;85;21196;-61
2022/07/31 04:39:28;;;;;;;7.15;2.45;;;;;;;32.33;36.37;100151.55;1668454;85;22364;-58
2022/07/31 04:41:55;;;;;;;4.47;2.30;;;;;;;32.34;36.13;100151.77;1668791;85;21480;-60
2022/07/31 04:44:23;;;;;;;3.52;1.80;;;;;;;32.26;36.29;100149.95;1668944;85;20959;-58
2022/07/31 04:46:52;;;;;;;5.17;2.20;;;;;;;32.21;35.72;100153.08;1667643;85;21082;-60
2022/07/31 04:49:19;;;;;;;4.40;2.08;;;;;;;32.03;35.91;100142.77;1668358;85;21144;-60
2022/07/31 04:51:47;;;;;;;3.85;2.65;;;;;;;31.95;36.63;100147.11;1668932;85;21099;-58
2022/07/31 04:54:14;;;;;;;5.87;2.83;;;;;;;32.17;36.60;100145.98;1668967;85;21027;-58
2022/07/31 04:56:42;;;;;;;9.15;2.75;;;;;;;32.46;36.02;100151.84;1669254;85;21041;-61
2022/07/31 04:59:11;;;;;;;5.62;2.87;;;;;;;32.62;35.42;100142.01;1668519;85;21067;-58
2022/07/31 05:01:40;;;;;;;7.90;3.27;;;;;;;32.70;35.25;100144.39;1669350;85;21144;-58
2022/07/31 05:04:08;;;;;;;5.97;3.12;;;;;;;32.57;34.94;100144.90;1669473;85;21307;-57
2022/07/31 05:06:45;;;;;;;6.33;2.90;;;;;;;32.34;35.58;100145.81;1668827;85;21031;-65
2022/07/31 05:09:18;;;;;;;7.03;3.00;;;;;;;32.45;35.78;100151.05;1640480;87;21497;-57
2022/07/31 05:11:46;;;;;;;7.22;3.20;;;;;;;32.49;35.71;100147.12;1669078;85;21331;-57
2022/07/31 05:14:14;;;;;;;6.30;3.10;;;;;;;32.48;35.55;100142.08;1640826;87;21260;-58
2022/07/31 05:16:42;;;;;;;5.08;2.92;;;;;;;32.53;36.13;100139.16;1668046;85;21058;-65
2022/07/31 05:19:09;;;;;;;4.17;2.70;;;;;;;32.94;35.36;100135.55;1669113;85;21468;-58
2022/07/31 05:21:56;;;;;;;4.85;2.80;;;;;;;33.08;34.74;100139.28;1668783;85;21015;-59
2022/07/31 05:24:37;;;;;;;6.03;3.20;;;;;;;32.87;35.28;100142.82;1667361;85;21085;-57
2022/07/31 05:27:07;;;;;;;6.22;3.00;;;;;;;32.82;35.46;100138.22;1640331;87;21988;-58
2022/07/31 05:29:36;;;;;;;6.30;3.17;;;;;;;32.88;35.97;100138.20;1668728;85;21090;-57
2022/07/31 05:32:05;;;;;;;5.10;2.72;;;;;;;33.12;35.72;100137.48;1640203;87;21519;-61
2022/07/31 05:34:33;;;;;;;6.15;2.98;;;;;;;33.42;34.79;100132.63;1668479;85;21059;-57
2022/07/31 05:37:00;;;;;;;7.97;4.10;;;;;;;33.50;34.52;100133.09;1640667;87;21848;-57
2022/07/31 05:39:27;;;;;;;5.62;3.00;;;;;;;33.40;34.63;100134.88;1638956;85;21163;-57
2022/07/31 05:42:13;;;;;;;6.15;3.33;;;;;;;33.23;34.83;100135.13;1639749;87;21028;-58
2022/07/31 05:44:45;;;;;;;6.30;2.92;;;;;;;33.15;35.41;100132.20;1650827;85;20995;-57
2022/07/31 05:47:12;;;;;;;4.40;2.65;;;;;;;33.14;35.54;100127.11;1668861;85;21015;-56
2022/07/31 05:49:40;;;;;;;5.55;2.65;;;;;;;33.34;35.59;100126.79;1668950;85;21077;-65
2022/07/31 05:52:07;;;;;;;4.58;2.55;;;;;;;33.43;35.55;100123.39;1667900;85;22671;-58
2022/07/31 05:54:35;;;;;;;5.40;2.58;;;;;;;33.39;35.42;100119.22;1668988;85;21499;-58
2022/07/31 05:57:10;;;;;;;5.45;2.75;;;;;;;33.36;35.58;100116.41;1654258;85;21563;-59
2022/07/31 05:59:41;;;;;;;5.67;2.95;;;;;;;33.50;35.30;100115.53;1640605;87;21147;-60
2022/07/31 06:02:08;;;;;;;7.17;3.27;;;;;;;33.59;36.08;100116.74;1668197;85;21067;-57
2022/07/31 06:04:37;;;;;;;6.42;3.30;;;;;;;33.89;35.42;100118.00;1631015;87;22188;-57
2022/07/31 06:07:04;;;;;;;7.00;2.92;;;;;;;34.08;35.49;100128.22;1668080;85;21060;-58
2022/07/31 06:09:32;;;;;;;6.20;3.12;;;;;;;34.44;35.03;100118.37;1620376;88;21113;-59
2022/07/31 06:11:59;;;;;;;6.92;3.22;;;;;;;34.88;34.29;100115.61;1620133;88;21505;-62
2022/07/31 06:14:26;;;;;;;7.22;3.02;;;;;;;35.18;33.82;100115.17;1661401;86;21440;-57
2022/07/31 06:17:05;;;;;;;7.87;3.40;;;;;;;35.24;33.03;100110.49;1618620;88;21229;-57
2022/07/31 06:19:33;;;;;;;4.30;2.75;;;;;;;35.15;33.66;100105.03;1662459;86;20933;-59
2022/07/31 06:22:00;;;;;;;5.30;2.62;;;;;;;35.37;33.83;100100.88;1619416;88;21030;-65
2022/07/31 06:24:29;;;;;;;4.72;2.87;;;;;;;35.49;32.91;100100.20;1661915;86;22159;-58
2022/07/31 06:26:59;;;;;;;3.15;1.87;;;;;;;35.37;33.40;100107.09;1619921;88;21559;-57
2022/07/31 06:29:31;;;;;;;4.83;2.50;;;;;;;35.32;33.53;100100.02;1647882;87;22036;-59
2022/07/31 06:31:55;;;;;;;4.42;2.40;;;;;;;35.25;32.85;100099.08;1661224;86;21523;-59
2022/07/31 06:34:23;;;;;;;5.70;2.22;;;;;;;34.85;33.48;100104.11;1620200;88;21593;-58
2022/07/31 06:36:50;;;;;;;5.12;1.98;;;;;;;34.77;34.21;100105.08;1648226;87;20981;-58
2022/07/31 06:39:19;;;;;;;3.95;1.82;;;;;;;34.79;34.26;100101.47;1647592;87;20978;-58
2022/07/31 06:41:46;;;;;;;3.83;1.67;;;;;;;35.03;34.31;100104.00;1647120;87;21240;-59
2022/07/31 06:44:30;;;;;;;2.98;1.80;;;;;;;35.35;33.61;100090.41;1647797;87;21068;-58
2022/07/31 06:47:17;;;;;;;4.35;1.62;;;;;;;35.24;33.71;100090.17;1647466;87;21062;-58
2022/07/31 06:49:58;;;;;;;2.77;1.40;;;;;;;35.09;33.75;100099.90;1647174;86;21125;-58
2022/07/31 06:52:27;;;;;;;3.05;1.17;;;;;;;34.99;33.67;100092.30;1661916;86;21112;-58
2022/07/31 06:54:54;;;;;;;2.22;1.20;;;;;;;35.02;33.95;100086.19;1619546;88;21307;-58
2022/07/31 06:57:21;;;;;;;4.22;1.82;;;;;;;35.03;33.50;100080.97;1647439;87;21475;-61
2022/07/31 06:59:49;;;;;;;2.10;1.10;;;;;;;34.89;33.94;100084.67;1648074;87;21962;-58
2022/07/31 07:02:16;;;;;;;4.60;1.50;;;;;;;34.66;33.68;100081.80;1648173;87;21489;-58
2022/07/31 07:04:44;;;;;;;2.77;1.57;;;;;;;34.23;34.61;100083.41;1647972;87;21565;-57
2022/07/31 07:07:12;;;;;;;3.75;2.00;;;;;;;34.11;34.81;100084.25;1643191;86;21182;-60
2022/07/31 07:09:39;;;;;;;2.20;1.27;;;;;;;33.83;35.11;100079.38;1641468;86;21579;-58
2022/07/31 07:12:07;;;;;;;2.35;1.45;;;;;;;33.76;35.76;100081.91;1641889;86;21064;-59
2022/07/31 07:14:36;;;;;;;3.50;1.70;;;;;;;33.93;36.32;100078.11;1642217;87;21518;-57
2022/07/31 07:17:05;;;;;;;5.03;1.65;;;;;;;34.08;35.85;100079.53;1641832;86;21490;-60
2022/07/31 07:19:33;;;;;;;3.55;1.70;;;;;;;34.02;34.84;100079.58;1627703;87;21717;-59
2022/07/31 07:22:01;;;;;;;3.77;1.60;;;;;;;33.77;35.42;100078.06;1641635;87;21549;-57
2022/07/31 07:24:29;;;;;;;3.75;1.60;;;;;;;33.82;36.63;100079.16;1628714;87;21013;-57
2022/07/31 07:27:04;;;;;;;2.40;1.42;;;;;;;34.12;35.90;100079.06;1641044;86;21096;-65
2022/07/31 07:29:32;;;;;;;2.55;1.30;;;;;;;34.39;35.53;100085.56;1641216;87;21469;-58
2022/07/31 07:31:59;;;;;;;2.70;1.55;;;;;;;34.51;34.85;100084.75;1641801;86;21386;-59
2022/07/31 07:34:26;;;;;;;5.40;1.32;;;;;;;34.38;34.64;100062.91;1642079;87;21029;-58
2022/07/31 07:36:54;;;;;;;4.67;1.60;;;;;;;34.29;34.64;100070.42;1641860;86;21503;-59
2022/07/31 07:39:23;;;;;;;2.57;1.60;;;;;;;34.27;34.24;100074.03;1641529;86;21013;-58
2022/07/31 07:41:51;;;;;;;2.85;1.55;;;;;;;34.16;34.88;100071.61;1642212;86;21081;-58
2022/07/31 07:44:19;;;;;;;4.47;1.30;;;;;;;34.16;34.41;100072.39;1642294;87;21325;-58
2022/07/31 07:46:46;;;;;;;3.02;1.75;;;;;;;34.09;34.19;100072.98;1642097;87;21063;-63
2022/07/31 07:49:15;;;;;;;2.72;1.50;;;;;;;34.00;34.18;100073.71;1641522;87;21560;-58
2022/07/31 07:51:53;;;;;;;2.58;1.62;;;;;;;34.08;34.34;100073.34;1639358;87;21672;-57
2022/07/31 07:54:29;;;;;;;6.75;1.50;;;;;;;34.09;34.20;100071.63;1599970;86;21037;-59
2022/07/31 07:57:17;;;;;;;4.08;1.90;;;;;;;34.31;34.28;100070.84;1642337;87;21534;-59
2022/07/31 08:00:08;;;;;;;3.72;1.80;;;;;;;34.80;33.23;100065.13;1641302;86;21536;-60
2022/07/31 08:02:47;;;;;;;1.80;1.50;;;;;;;34.94;32.20;100066.03;1629920;86;21035;-59
2022/07/31 08:05:15;;;;;;;2.70;1.50;;;;;;;34.47;32.17;100066.80;1641841;87;20984;-59
2022/07/31 08:07:43;;;;;;;2.72;1.57;;;;;;;34.34;32.65;100065.53;1639310;87;21596;-65
2022/07/31 08:10:18;;;;;;;5.42;1.80;;;;;;;34.30;33.21;100051.70;1632423;87;22331;-59
2022/07/31 08:12:46;;;;;;;2.55;1.87;;;;;;;34.26;33.49;100059.72;1637992;87;20995;-59
2022/07/31 08:15:16;;;;;;;3.92;1.75;;;;;;;34.26;34.14;100060.29;1638926;87;21534;-57
2022/07/31 08:18:01;;;;;;;2.92;1.50;;;;;;;34.34;33.89;100056.63;1638781;87;21391;-58
2022/07/31 08:20:29;;;;;;;3.25;1.60;;;;;;;34.45;33.73;100056.33;1639057;87;20950;-59
2022/07/31 08:22:56;;;;;;;7.33;1.85;;;;;;;34.66;33.51;100051.23;1638767;87;21290;-59
2022/07/31 08:25:24;;;;;;;2.87;1.77;;;;;;;34.74;33.45;100050.27;1638922;87;21001;-64
2022/07/31 08:27:51;;;;;;;4.10;1.80;;;;;;;34.99;32.99;100038.67;1638082;87;21520;-58
2022/07/31 08:30:18;;;;;;;5.30;2.15;;;;;;;35.09;32.39;100028.10;1638518;87;21348;-59
2022/07/31 08:32:45;;;;;;;2.50;1.37;;;;;;;35.38;32.39;100027.34;1638956;87;21084;-59
2022/07/31 08:35:19;;;;;;;2.35;1.50;;;;;;;35.53;31.27;100017.02;1640182;87;21146;-60
2022/07/31 08:37:47;;;;;;;2.75;1.20;;;;;;;35.48;31.18;100023.28;1668286;85;21022;-59
2022/07/31 08:40:16;;;;;;;2.67;1.30;;;;;;;35.26;31.04;100023.41;1640197;87;21498;-58
2022/07/31 08:42:45;;;;;;;3.97;1.70;;;;;;;35.12;31.24;100013.08;1668792;85;21579;-58
2022/07/31 08:45:13;;;;;;;3.83;1.50;;;;;;;35.02;31.58;100025.23;1639990;87;20949;-59
2022/07/31 08:47:46;;;;;;;1.90;1.35;;;;;;;34.78;31.11;100019.45;1668337;85;21232;-58
2022/07/31 08:50:15;;;;;;;3.30;1.50;;;;;;;34.55;31.70;100021.20;1640100;87;21096;-60
2022/07/31 08:52:43;;;;;;;2.12;1.62;;;;;;;34.59;32.17;100016.69;1668350;85;21078;-59
2022/07/31 08:55:15;;;;;;;3.50;1.60;;;;;;;34.57;31.34;100013.53;1666905;85;21543;-63
2022/07/31 08:57:46;;;;;;;2.02;1.30;;;;;;;34.17;31.36;100009.60;1643811;85;21908;-60
2022/07/31 09:00:16;;;;;;;;;;;;;;;33.94;31.98;100008.80;1642854;87;21800;-58
2022/07/31 09:02:45;;;;;;;5.75;1.50;;;;;;;34.06;32.20;100011.48;1659263;86;20102;-58
2022/07/31 09:05:23;;;;;;;2.47;1.50;;;;;;;34.16;32.13;99999.92;1637517;87;22195;-58
2022/07/31 09:07:53;;;;;;;3.95;2.00;;;;;;;34.20;32.16;100002.15;1669048;85;21058;-58
2022/07/31 09:10:27;;;;;;;2.45;1.70;;;;;;;33.86;32.21;100001.63;1669114;85;21053;-58
2022/07/31 09:12:55;;;;;;;1.98;1.40;;;;;;;33.90;32.97;99994.40;1667918;85;21580;-58
2022/07/31 09:15:29;;;;;;;4.13;1.90;;;;;;;34.16;32.25;99998.56;1669198;85;21452;-58
2022/07/31 09:17:58;;;;;;;3.55;1.80;;;;;;;34.29;32.25;99991.95;1668353;85;20957;-58
2022/07/31 09:20:28;;;;;;;3.30;1.90;;;;;;;34.38;31.61;100002.03;1668679;85;21482;-66
2022/07/31 09:23:07;;;;;;;4.75;1.95;;;;;;;34.21;31.60;99975.30;1668137;85;20979;-59
2022/07/31 09:25:36;;;;;;;2.80;1.77;;;;;;;33.98;32.40;99975.09;1669003;85;21247;-58
2022/07/31 09:28:04;;;;;;;3.40;1.80;;;;;;;33.94;32.46;99970.16;1668843;85;21579;-58
2022/07/31 09:30:32;;;;;;;3.10;1.95;;;;;;;33.88;31.87;99968.28;1667926;85;21067;-66
2022/07/31 09:33:15;;;;;;;3.15;2.30;;;;;;;33.63;32.52;99971.10;1666009;85;21973;-59
2022/07/31 09:36:01;;;;;;;3.80;1.62;;;;;;;33.45;32.67;99961.69;1639969;87;20968;-65
2022/07/31 09:38:32;;;;;;;2.95;1.98;;;;;;;33.45;33.39;99965.73;1668850;85;22313;-58
2022/07/31 09:41:19;;;;;;;3.67;1.72;;;;;;;33.81;33.10;99969.45;1640473;87;21075;-59
2022/07/31 09:43:59;;;;;;;2.30;1.82;;;;;;;33.90;32.43;99967.36;1665275;85;21031;-61
2022/07/31 09:46:28;;;;;;;3.72;1.95;;;;;;;33.86;32.38;99964.56;1639678;87;21889;-59
2022/07/31 09:48:55;;;;;;;2.72;1.60;;;;;;;33.93;32.06;99964.53;1667778;85;21083;-58
2022/07/31 09:51:23;;;;;;;3.05;1.90;;;;;;;33.89;32.21;99952.27;1668716;85;21152;-59
2022/07/31 09:53:55;;;;;;;2.80;1.90;;;;;;;34.09;32.02;99957.24;1667476;85;20962;-59
2022/07/31 09:56:33;;;;;;;3.83;1.77;;;;;;;34.16;31.20;99962.83;1625145;85;24124;-58
2022/07/31 09:59:02;;;;;;;4.08;2.00;;;;;;;34.12;31.61;99955.98;1640428;87;21569;-58
2022/07/31 10:01:29;;;;;;;4.65;1.77;;;;;;;34.11;31.86;99950.36;1667535;85;21023;-59
2022/07/31 10:03:59;;;;;;;4.17;2.10;;;;;;;34.16;31.42;99949.88;1668069;85;21619;-58
2022/07/31 10:06:26;;;;;;;3.95;1.70;;;;;;;34.22;31.11;99960.66;1668585;85;20991;-58
2022/07/31 10:08:54;;;;;;;2.87;2.02;;;;;;;34.26;30.90;99961.53;1648635;85;21091;-58
2022/07/31 10:11:40;;;;;;;2.85;1.82;;;;;;;34.28;30.43;99953.27;1640009;87;21143;-59
2022/07/31 10:14:13;;;;;;;3.60;2.15;;;;;;;34.18;31.29;99947.63;1639991;87;21114;-58
2022/07/31 10:16:40;;;;;;;2.62;1.70;;;;;;;34.19;30.49;99950.53;1640488;87;21218;-61
2022/07/31 10:19:15;;;;;;;2.45;1.90;;;;;;;34.12;31.21;99946.52;1636654;87;22218;-60
2022/07/31 10:22:00;;;;;;;3.22;1.98;;;;;;;34.25;30.57;99935.62;1636913;87;21592;-59
2022/07/31 10:24:32;;;;;;;4.00;1.73;;;;;;;34.35;30.71;99929.66;1640620;87;21609;-59
2022/07/31 10:26:59;;;;;;;2.98;1.67;;;;;;;34.42;30.17;99943.36;1640019;87;21470;-61
2022/07/31 10:29:29;;;;;;;2.80;1.90;;;;;;;34.25;30.61;99953.20;1640556;87;22138;-59
2022/07/31 10:31:57;;;;;;;3.25;1.80;;;;;;;34.07;30.89;99952.19;1640422;87;21033;-58
2022/07/31 10:34:24;;;;;;;3.30;1.98;;;;;;;33.98;30.97;99943.48;1640681;87;21024;-58
2022/07/31 10:37:23;;;;;;;3.17;1.75;;;;;;;33.93;30.59;99937.49;1640489;87;22482;-58
2022/07/31 10:40:21;;;;;;;2.85;1.75;;;;;;;33.97;30.86;99933.74;1639264;87;21053;-59
2022/07/31 10:43:30;;;;;;;2.90;1.80;;;;;;;34.27;31.33;99923.87;1627530;87;21207;-58
2022/07/31 10:46:31;;;;;;;5.83;2.50;;;;;;;34.81;30.38;99932.07;1591096;87;21120;-57
2022/07/31 10:49:06;;;;;;;4.42;2.30;;;;;;;34.78;29.77;99934.73;1599641;87;21101;-58
2022/07/31 10:51:49;;;;;;;3.00;2.00;;;;;;;34.28;30.13;99923.50;1583862;87;21097;-58
2022/07/31 10:54:42;;;;;;;2.60;1.70;;;;;;;34.04;30.98;99922.35;1602865;87;21150;-61
2022/07/31 10:57:30;;;;;;;3.27;2.02;;;;;;;33.96;30.89;99910.55;1639710;87;21291;-59
2022/07/31 11:00:16;;;;;;;5.95;2.08;;;;;;;34.01;31.03;99914.36;1612275;87;21025;-58
2022/07/31 11:03:21;;;;;;;2.60;1.70;;;;;;;34.16;30.76;99915.48;1640084;87;21829;-58
2022/07/31 11:06:00;;;;;;;3.52;2.20;;;;;;;34.35;30.39;99901.25;1585209;90;21386;-59
2022/07/31 11:08:47;;;;;;;3.53;2.13;;;;;;;34.64;29.97;99904.63;1584253;88;21064;-59
2022/07/31 11:11:34;;;;;;;3.02;1.90;;;;;;;34.55;30.22;99917.80;1640659;87;21294;-57
2022/07/31 11:14:02;;;;;;;2.72;1.90;;;;;;;34.57;30.34;99906.61;1640496;87;21869;-59
2022/07/31 11:16:54;;;;;;;3.08;1.87;;;;;;;34.77;30.06;99903.36;1664150;85;21072;-58
2022/07/31 11:19:24;;;;;;;6.67;2.08;;;;;;;34.84;29.85;99902.16;1658062;85;21079;-62
2022/07/31 11:21:56;;;;;;;3.17;1.98;;;;;;;34.81;29.46;99898.80;1668243;85;21113;-59
2022/07/31 11:24:26;;;;;;;2.42;1.65;;;;;;;34.64;29.96;99903.28;1668020;85;21666;-58
2022/07/31 11:26:56;;;;;;;3.42;1.92;;;;;;;34.45;30.00;99905.34;1667916;85;21854;-58
2022/07/31 11:29:37;;;;;;;3.37;1.80;;;;;;;34.48;29.91;99901.37;1668446;85;21147;-58
2022/07/31 11:32:17;;;;;;;3.62;1.62;;;;;;;34.55;29.99;99897.50;1668391;85;21091;-57
2022/07/31 11:34:54;;;;;;;4.55;1.70;;;;;;;34.62;30.24;99894.14;1667283;85;21076;-59
2022/07/31 11:37:29;;;;;;;2.62;1.40;;;;;;;34.77;29.88;99889.81;1668858;85;21253;-58
2022/07/31 11:39:56;;;;;;;3.35;1.50;;;;;;;34.86;29.67;99885.00;1668549;85;21077;-57
2022/07/31 11:42:26;;;;;;;4.17;1.77;;;;;;;34.86;29.13;99880.36;1668563;85;21059;-58
2022/07/31 11:45:04;;;;;;;5.37;2.30;;;;;;;34.72;29.45;99880.63;1668360;85;21593;-58